📊 Raw Sensor Data
Showing records 42951 to 42975 of 85,008 total
| ID | Distance (ft) | Battery V | Battery A | Int Temp (°F) | Int Humid (%) | Ext Temp (°F) | Solar V | RSSI | SNR | Time Stamp |
|---|---|---|---|---|---|---|---|---|---|---|
| 42070 | 15.6 | 3.96 | 6 | 76 | 43 | 79 | 5.10 | -74 | 7 | 05/30/2025 09:00 AM |
| 42069 | 15.6 | 3.99 | 6 | 76 | 43 | 77 | 5.10 | -74 | 7 | 05/30/2025 08:45 AM |
| 42068 | 15.6 | 3.96 | 0 | 74 | 43 | 75 | 5.10 | -75 | 7 | 05/30/2025 08:30 AM |
| 42067 | 15.6 | 3.96 | 6 | 73 | 43 | 78 | 5.10 | -74 | 8 | 05/30/2025 08:15 AM |
| 42066 | 15.6 | 3.96 | 0 | 71 | 42 | 79 | 5.10 | -74 | 8 | 05/30/2025 08:00 AM |
| 42065 | 15.6 | 4.08 | 73 | 70 | 42 | 77 | 4.50 | -75 | 8 | 05/30/2025 07:45 AM |
| 42064 | 15.5 | 4.06 | 33 | 68 | 41 | 76 | 4.50 | -74 | 8 | 05/30/2025 07:30 AM |
| 42063 | 15.5 | 3.96 | 27 | 66 | 41 | 75 | 4.50 | -74 | 8 | 05/30/2025 07:15 AM |
| 42062 | 15.5 | 3.97 | 0 | 63 | 41 | 74 | 4.50 | -73 | 8 | 05/30/2025 07:00 AM |
| 42061 | 15.4 | 3.91 | 5 | 60 | 41 | 68 | 4.50 | -73 | 8 | 05/30/2025 06:45 AM |
| 42060 | 15.4 | 3.95 | 0 | 57 | 42 | 62 | 4.50 | -73 | 7 | 05/30/2025 06:30 AM |
| 42059 | 15.3 | 3.94 | 0 | 55 | 43 | 61 | 4.50 | -73 | 8 | 05/30/2025 06:15 AM |
| 42058 | 15.3 | 3.88 | -7 | 55 | 43 | 56 | 4.50 | -73 | 8 | 05/30/2025 06:00 AM |
| 42057 | 15.3 | 3.87 | -10 | 55 | 43 | 56 | 4.20 | -73 | 8 | 05/30/2025 05:45 AM |
| 42056 | 15.3 | 3.88 | -5 | 55 | 43 | 55 | 1.10 | -72 | 8 | 05/30/2025 05:30 AM |
| 42055 | 15.3 | 3.94 | -5 | 55 | 44 | 56 | 0.00 | -73 | 8 | 05/30/2025 05:15 AM |
| 42054 | 15.3 | 3.89 | -35 | 56 | 43 | 57 | 0.10 | -73 | 8 | 05/30/2025 05:00 AM |
| 42053 | 15.3 | 3.89 | -5 | 57 | 43 | 57 | 0.00 | -73 | 8 | 05/30/2025 04:45 AM |
| 42052 | 15.3 | 3.89 | -5 | 58 | 42 | 59 | 0.00 | -74 | 8 | 05/30/2025 04:30 AM |
| 42051 | 15.3 | 3.89 | -5 | 58 | 43 | 60 | 0.00 | -74 | 8 | 05/30/2025 04:15 AM |
| 42050 | 15.3 | 3.94 | -5 | 58 | 42 | 60 | 0.00 | -73 | 8 | 05/30/2025 04:00 AM |
| 42049 | 15.3 | 3.89 | -5 | 58 | 42 | 61 | 0.00 | -74 | 8 | 05/30/2025 03:45 AM |
| 42048 | 15.3 | 3.89 | -5 | 58 | 43 | 60 | 0.00 | -72 | 8 | 05/30/2025 03:30 AM |
| 42047 | 15.3 | 3.89 | -5 | 57 | 43 | 59 | 0.00 | -74 | 8 | 05/30/2025 03:15 AM |
| 42046 | 15.3 | 3.95 | -5 | 57 | 43 | 58 | 0.00 | -74 | 8 | 05/30/2025 03:00 AM |